Time;durP1;ratioP1;P1;durP2;ratioP2;P2;SDS_P1;SDS_P2;PMS_P1;PMS_P2;Temp;Humidity;BMP_temperature;BMP_pressure;BME280_temperature;BME280_humidity;BME280_pressure;Samples;Min_cycle;Max_cycle;Signal;HPM_P1;HPM_P2
2022/01/23 00:04:52;;;;;;;61.50;37.88;;;;;;;2.88;90.46;103385.06;10526535;28;20344;-79
2022/01/23 00:09:53;;;;;;;64.28;36.03;;;;;;;2.91;90.27;103394.84;10477591;28;20475;-79
2022/01/23 00:20:12;;;;;;;57.38;35.92;;;;;;;2.90;90.24;103386.16;10485845;28;20123;-79
2022/01/23 00:30:33;;;;;;;63.72;35.95;;;;;;;2.95;90.12;103368.63;10501554;28;20465;-79
2022/01/23 00:35:37;;;;;;;54.20;31.07;;;;;;;2.94;89.42;103369.34;10502036;28;20461;-78
2022/01/23 00:40:39;;;;;;;61.75;40.88;;;;;;;2.92;89.58;103368.25;10467065;28;20080;-78
2022/01/23 00:45:45;;;;;;;56.53;34.42;;;;;;;2.88;89.96;103374.69;10534731;28;20449;-79
2022/01/23 00:50:46;;;;;;;55.42;35.15;;;;;;;2.86;90.26;103373.59;10483346;28;20377;-78
2022/01/23 00:55:47;;;;;;;53.55;34.25;;;;;;;2.85;90.44;103371.75;10499921;28;20063;-78
2022/01/23 01:00:47;;;;;;;63.03;35.95;;;;;;;2.85;90.13;103373.44;10499752;28;20032;-78
2022/01/23 01:05:48;;;;;;;57.60;36.67;;;;;;;2.88;90.34;103372.13;10499674;28;20094;-78
2022/01/23 01:11:07;;;;;;;62.75;38.30;;;;;;;2.83;90.43;103360.28;10498318;28;20059;-79
2022/01/23 01:16:40;;;;;;;56.80;35.50;;;;;;;2.83;90.39;103354.22;10499533;28;20369;-79
2022/01/23 01:32:16;;;;;;;54.50;34.55;;;;;;;3.00;89.58;103366.56;10497871;28;20070;-79
2022/01/23 01:37:16;;;;;;;60.08;37.92;;;;;;;2.98;89.67;103357.69;10462498;28;20095;-78
2022/01/23 01:42:17;;;;;;;54.42;33.75;;;;;;;3.08;88.82;103352.84;10496579;28;20083;-78
2022/01/23 01:47:17;;;;;;;61.03;34.00;;;;;;;2.95;89.25;103358.25;10497908;28;20475;-78
2022/01/23 01:52:18;;;;;;;49.25;30.30;;;;;;;2.98;89.47;103360.28;10498801;28;20083;-79
2022/01/23 01:57:18;;;;;;;59.15;34.20;;;;;;;2.87;89.87;103354.75;10463456;28;20048;-78
2022/01/23 02:02:49;;;;;;;65.55;36.97;;;;;;;2.85;90.08;103366.56;10480628;28;20024;-79
2022/01/23 02:13:13;;;;;;;68.68;43.63;;;;;;;2.84;89.86;103363.81;10497257;28;20059;-78
2022/01/23 02:55:21;;;;;;;78.43;45.70;;;;;;;2.77;90.93;103342.41;10494751;28;20543;-78
2022/01/23 03:00:26;;;;;;;79.70;44.78;;;;;;;2.77;90.65;103338.88;10479280;28;20036;-78
2022/01/23 03:10:43;;;;;;;75.97;44.15;;;;;;;2.78;90.79;103336.50;10478559;28;20071;-78
2022/01/23 03:16:10;;;;;;;69.55;44.55;;;;;;;3.00;90.22;103344.22;10479979;28;20028;-78
2022/01/23 03:26:32;;;;;;;68.70;40.08;;;;;;;2.85;90.62;103330.38;10493992;28;20472;-79
2022/01/23 03:31:43;;;;;;;69.03;40.67;;;;;;;2.77;90.09;103352.75;10494484;28;20115;-78
2022/01/23 03:36:44;;;;;;;75.90;48.33;;;;;;;2.79;91.02;103348.69;10494707;28;20052;-79
2022/01/23 03:41:44;;;;;;;72.60;44.50;;;;;;;2.69;90.97;103355.13;10494290;28;20135;-79
2022/01/23 03:51:45;;;;;;;75.82;45.42;;;;;;;2.63;90.68;103347.59;10496537;28;20051;-78
2022/01/23 03:56:46;;;;;;;87.20;50.58;;;;;;;2.64;91.15;103349.44;10502801;28;20068;-79
2022/01/23 04:01:46;;;;;;;81.43;46.28;;;;;;;2.62;91.44;103348.34;10502214;28;20096;-78
2022/01/23 04:06:47;;;;;;;68.85;44.50;;;;;;;2.63;91.39;103352.75;10501993;28;20067;-79
2022/01/23 04:11:48;;;;;;;69.10;41.72;;;;;;;2.60;91.12;103357.56;10484852;28;20462;-79
2022/01/23 05:04:11;;;;;;;77.38;48.28;;;;;;;2.70;91.87;103364.75;10497777;28;20089;-78
2022/01/23 05:09:13;;;;;;;74.88;46.97;;;;;;;2.60;91.61;103360.16;10500386;28;20479;-78
2022/01/23 05:14:14;;;;;;;82.23;50.40;;;;;;;2.56;91.69;103361.44;10498417;28;20033;-79
2022/01/23 05:19:15;;;;;;;83.20;47.97;;;;;;;2.61;92.09;103365.50;10482947;28;20332;-79
2022/01/23 05:24:19;;;;;;;78.30;48.78;;;;;;;2.56;91.78;103358.84;10481514;28;20097;-79
2022/01/23 05:29:21;;;;;;;72.55;41.10;;;;;;;2.61;92.23;103362.91;10481739;28;20032;-79
2022/01/23 05:34:23;;;;;;;;;;;;;;;2.51;92.18;103367.72;10483073;28;20093;-80
2022/01/23 05:39:26;;;;;;;81.55;48.47;;;;;;;2.57;92.38;103358.09;10496166;28;19912;-79
2022/01/23 05:44:27;;;;;;;84.05;49.42;;;;;;;2.60;92.41;103355.88;10495856;28;20090;-79
2022/01/23 05:49:27;;;;;;;83.47;48.53;;;;;;;2.53;92.36;103358.47;10492678;28;20933;-78
2022/01/23 05:54:28;;;;;;;80.03;44.97;;;;;;;2.52;92.09;103354.03;10493599;28;20662;-78
2022/01/23 05:59:30;;;;;;;88.17;48.23;;;;;;;2.51;91.98;103367.72;10495039;28;20033;-79
2022/01/23 06:04:30;;;;;;;94.57;56.20;;;;;;;2.59;92.51;103366.97;10494290;28;20104;-79
2022/01/23 06:09:31;;;;;;;89.53;53.53;;;;;;;2.52;92.05;103369.56;10495289;28;20123;-79
2022/01/23 06:14:31;;;;;;;79.00;48.92;;;;;;;2.51;92.39;103365.13;10512087;28;20048;-78
2022/01/23 06:19:34;;;;;;;79.00;47.67;;;;;;;2.43;92.49;103365.88;10493397;28;20124;-78
2022/01/23 06:24:36;;;;;;;92.80;52.75;;;;;;;2.38;92.51;103364.38;10494629;28;20036;-79
2022/01/23 06:29:38;;;;;;;110.53;60.10;;;;;;;2.47;92.97;103373.25;10495419;28;20131;-81
2022/01/23 06:34:38;;;;;;;64.43;37.47;;;;;;;2.52;92.60;103374.72;10477316;28;20043;-80
2022/01/23 06:39:39;;;;;;;86.63;52.47;;;;;;;2.48;92.45;103377.69;10506616;28;20455;-79
2022/01/23 06:44:42;;;;;;;97.18;56.30;;;;;;;2.50;92.84;103381.38;10509948;28;20059;-79
2022/01/23 06:49:43;;;;;;;92.05;52.47;;;;;;;2.54;92.87;103381.00;10522388;28;20501;-77
2022/01/23 06:54:44;;;;;;;85.55;50.97;;;;;;;2.51;92.50;103385.81;10496737;28;20039;-78
2022/01/23 06:59:44;;;;;;;89.22;52.53;;;;;;;2.46;92.68;103380.09;10491255;28;20066;-78
2022/01/23 07:04:45;;;;;;;96.38;55.22;;;;;;;2.56;92.46;103391.56;10476500;28;20503;-79
2022/01/23 07:09:45;;;;;;;100.20;58.97;;;;;;;2.70;92.33;103396.72;10492053;28;20069;-79
2022/01/23 07:14:46;;;;;;;93.45;55.33;;;;;;;2.85;91.18;103402.78;10475898;28;20040;-78
2022/01/23 07:19:46;;;;;;;96.22;52.25;;;;;;;2.71;91.17;103395.97;10519209;28;20119;-79
2022/01/23 07:24:47;;;;;;;78.75;48.30;;;;;;;2.74;91.21;103403.16;10498175;28;20063;-79
2022/01/23 07:29:48;;;;;;;84.05;52.53;;;;;;;2.74;91.11;103410.94;10502942;28;20385;-79
2022/01/23 07:34:48;;;;;;;89.45;50.92;;;;;;;2.64;91.09;103412.41;10492262;28;20021;-80
2022/01/23 07:39:49;;;;;;;89.18;51.85;;;;;;;2.75;91.37;103418.88;10504544;28;20063;-78
2022/01/23 07:44:50;;;;;;;88.30;50.83;;;;;;;2.70;91.24;103429.41;10492529;28;20492;-78
2022/01/23 07:49:51;;;;;;;86.43;50.23;;;;;;;2.70;91.01;103430.34;10520942;28;20028;-79
2022/01/23 07:54:51;;;;;;;82.95;47.50;;;;;;;2.61;91.66;103432.72;10500405;28;20056;-79
2022/01/23 07:59:52;;;;;;;94.90;57.22;;;;;;;2.62;91.89;103442.31;10499606;28;20059;-78
2022/01/23 08:04:52;;;;;;;91.35;50.13;;;;;;;2.59;91.54;103443.63;10499444;28;20068;-80
2022/01/23 08:09:55;;;;;;;94.13;55.25;;;;;;;2.61;92.05;103444.75;10511722;28;20028;-79
2022/01/23 08:15:03;;;;;;;85.88;50.17;;;;;;;2.58;92.16;103453.03;10520420;28;20479;-79
2022/01/23 08:20:04;;;;;;;94.28;50.70;;;;;;;2.61;91.85;103460.25;10514289;28;20380;-79
2022/01/23 08:25:05;;;;;;;90.32;54.75;;;;;;;2.68;92.27;103448.97;10510483;28;20028;-79
2022/01/23 08:30:06;;;;;;;85.82;51.47;;;;;;;2.71;92.64;103451.94;10507166;28;20039;-79
2022/01/23 08:35:07;;;;;;;90.28;49.50;;;;;;;2.74;92.60;103461.00;10525357;28;20099;-79
2022/01/23 08:40:17;;;;;;;99.15;50.83;;;;;;;2.77;92.61;103466.56;10519155;28;20029;-80
2022/01/23 08:45:18;;;;;;;94.97;52.42;;;;;;;2.87;92.84;103471.16;10512163;28;20424;-79
2022/01/23 08:50:19;;;;;;;101.03;56.13;;;;;;;2.88;92.36;103475.59;10539861;28;20100;-80
2022/01/23 08:55:20;;;;;;;90.60;49.78;;;;;;;2.96;92.61;103471.34;10519246;28;20117;-79
2022/01/23 09:00:24;;;;;;;88.97;48.17;;;;;;;3.08;92.21;103459.91;10506732;28;20033;-79
2022/01/23 09:05:26;;;;;;;100.95;54.30;;;;;;;3.16;92.62;103468.56;10523869;28;20039;-79
2022/01/23 09:10:29;;;;;;;86.17;49.90;;;;;;;3.24;91.57;103461.72;10518191;28;20132;-79
2022/01/23 09:15:30;;;;;;;90.90;51.00;;;;;;;3.38;91.90;103466.88;10524416;28;20301;-80
2022/01/23 09:20:31;;;;;;;76.60;46.45;;;;;;;3.41;90.77;103462.81;10537338;28;20024;-79
2022/01/23 09:25:31;;;;;;;74.82;41.40;;;;;;;3.45;90.16;103467.59;10527919;28;20104;-80
2022/01/23 09:30:36;;;;;;;76.68;43.42;;;;;;;3.59;90.46;103470.16;10499619;28;20029;-79
2022/01/23 09:35:36;;;;;;;70.97;41.38;;;;;;;3.72;90.30;103474.19;10518234;28;20078;-79
2022/01/23 09:40:39;;;;;;;64.13;37.92;;;;;;;3.72;88.02;103469.00;10528579;28;20089;-80
2022/01/23 09:45:47;;;;;;;68.15;40.72;;;;;;;3.81;87.95;103472.69;10484082;28;20534;-79
2022/01/23 09:50:49;;;;;;;73.13;39.72;;;;;;;3.90;88.33;103478.00;10509794;28;20025;-79
2022/01/23 09:55:52;;;;;;;67.05;41.63;;;;;;;4.10;88.29;103483.81;10499079;28;20028;-79
2022/01/23 10:00:55;;;;;;;63.17;37.72;;;;;;;4.29;87.27;103500.59;10498468;28;20407;-80
2022/01/23 10:05:56;;;;;;;63.08;38.13;;;;;;;4.43;85.67;103496.97;10496297;28;20062;-79
2022/01/23 10:10:57;;;;;;;64.30;40.13;;;;;;;4.31;86.06;103496.50;10496103;28;20028;-79
2022/01/23 10:15:57;;;;;;;57.72;36.42;;;;;;;4.32;86.69;103494.09;10486241;28;20402;-80
2022/01/23 10:20:58;;;;;;;61.53;36.00;;;;;;;4.41;85.91;103495.13;10537317;28;20048;-80
2022/01/23 10:25:59;;;;;;;65.60;35.90;;;;;;;4.35;85.76;103498.72;10538608;28;20118;-80
2022/01/23 10:31:04;;;;;;;59.42;38.95;;;;;;;4.35;86.37;103497.03;10509464;28;20074;-79
2022/01/23 10:36:12;;;;;;;59.40;36.85;;;;;;;4.36;86.13;103497.97;10496796;28;20033;-79
2022/01/23 10:47:17;;;;;;;56.78;35.45;;;;;;;4.38;86.03;103484.41;10504234;28;20039;-79
2022/01/23 10:51:48;;;;;;;67.45;36.97;;;;;;;4.48;84.52;103481.22;10534369;28;20093;-79
2022/01/23 10:56:49;;;;;;;55.55;32.17;;;;;;;4.46;85.07;103474.94;10518072;28;20030;-79
2022/01/23 11:02:23;;;;;;;54.00;30.98;;;;;;;4.51;85.04;103480.63;10515323;28;20016;-79
2022/01/23 11:07:25;;;;;;;58.58;32.17;;;;;;;4.57;84.65;103483.94;10510569;28;20032;-80
2022/01/23 11:17:50;;;;;;;43.17;23.57;;;;;;;4.72;83.76;103470.84;10497632;28;20299;-79
2022/01/23 11:22:51;;;;;;;62.08;34.65;;;;;;;4.74;83.60;103461.56;10495374;28;20032;-79
2022/01/23 11:27:51;;;;;;;60.03;34.10;;;;;;;4.74;83.21;103467.69;10451417;28;20554;-80
2022/01/23 11:32:54;;;;;;;61.13;36.10;;;;;;;4.82;83.15;103465.94;10472066;28;20065;-79
2022/01/23 11:37:54;;;;;;;58.13;32.33;;;;;;;4.79;83.72;103461.34;10484904;28;20036;-78
2022/01/23 11:54:02;;;;;;;54.78;33.05;;;;;;;4.89;84.03;103446.81;10476538;28;20500;-78
2022/01/23 11:59:09;;;;;;;49.75;32.10;;;;;;;4.89;83.16;103442.53;10492657;28;20024;-77
2022/01/23 12:04:19;;;;;;;56.03;33.22;;;;;;;4.93;83.54;103442.13;10499842;28;20047;-77
2022/01/23 12:09:20;;;;;;;65.85;33.42;;;;;;;4.92;83.70;103442.88;10492788;28;20032;-79
2022/01/23 12:19:23;;;;;;;60.37;37.47;;;;;;;5.03;82.51;103425.00;10477134;28;20132;-77
2022/01/23 12:24:24;;;;;;;52.00;31.38;;;;;;;5.03;81.46;103427.59;10500684;28;20047;-78
2022/01/23 12:29:26;;;;;;;50.25;30.17;;;;;;;5.18;82.10;103418.00;10489799;28;20032;-80
2022/01/23 12:34:54;;;;;;;73.57;37.35;;;;;;;5.24;81.63;103413.47;10484206;28;20065;-79
2022/01/23 12:40:23;;;;;;;67.40;41.83;;;;;;;5.33;81.27;103413.56;10499496;28;20049;-79
2022/01/23 12:45:43;;;;;;;49.40;30.88;;;;;;;5.53;80.83;103407.97;10500892;28;20028;-79
2022/01/23 12:50:47;;;;;;;58.58;37.13;;;;;;;5.50;80.54;103411.13;10512511;28;20025;-80
2022/01/23 12:56:02;;;;;;;53.72;31.15;;;;;;;5.47;81.71;103396.91;10516700;28;20024;-78
2022/01/23 13:01:23;;;;;;;52.72;32.47;;;;;;;5.37;81.83;103390.69;10502626;28;20407;-79
2022/01/23 13:06:29;;;;;;;55.58;32.63;;;;;;;5.44;82.58;103390.63;10496597;28;20028;-79
2022/01/23 13:11:50;;;;;;;53.72;30.85;;;;;;;5.39;81.92;103386.59;10496629;28;20478;-78
2022/01/23 13:32:47;;;;;;;59.97;33.35;;;;;;;5.38;81.20;103379.56;10497637;28;20483;-78
2022/01/23 13:37:55;;;;;;;60.88;30.13;;;;;;;5.34;82.01;103381.63;10491965;28;20048;-78
2022/01/23 13:53:28;;;;;;;61.07;32.40;;;;;;;5.29;82.33;103369.06;10474256;28;20617;-78
2022/01/23 13:58:39;;;;;;;61.20;33.20;;;;;;;5.23;82.18;103370.09;10488239;28;20024;-78
2022/01/23 14:03:40;;;;;;;54.47;29.80;;;;;;;5.20;82.05;103364.56;10490707;28;20094;-80
2022/01/23 14:08:40;;;;;;;52.03;32.95;;;;;;;5.27;81.12;103367.97;10496328;28;20074;-80
2022/01/23 14:13:42;;;;;;;50.20;28.08;;;;;;;5.31;81.68;103365.72;10496634;28;20555;-80
2022/01/23 14:18:43;;;;;;;50.40;28.73;;;;;;;5.22;81.11;103357.84;10514970;28;20059;-79
2022/01/23 14:23:52;;;;;;;57.00;28.65;;;;;;;5.10;81.46;103353.16;10516606;28;20487;-79
2022/01/23 14:28:53;;;;;;;49.33;28.80;;;;;;;5.13;81.86;103362.94;10461517;28;20024;-80
2022/01/23 14:33:57;;;;;;;50.30;27.23;;;;;;;5.09;81.84;103359.13;10473105;28;20028;-79
2022/01/23 14:38:59;;;;;;;50.08;29.75;;;;;;;5.01;82.33;103367.72;10483261;28;20032;-80
2022/01/23 14:44:00;;;;;;;51.15;31.63;;;;;;;4.95;82.17;103374.84;10513137;28;20053;-79
2022/01/23 14:49:10;;;;;;;55.28;34.67;;;;;;;4.90;82.22;103376.00;10499141;28;20059;-79
2022/01/23 14:54:13;;;;;;;62.22;33.83;;;;;;;4.79;82.45;103372.19;10499567;28;20099;-78
2022/01/23 14:59:14;;;;;;;59.88;32.78;;;;;;;4.74;83.10;103375.94;10500819;28;20029;-79
2022/01/23 15:04:15;;;;;;;51.67;32.55;;;;;;;4.69;83.21;103378.06;10507716;28;20463;-80
2022/01/23 15:09:17;;;;;;;52.97;32.28;;;;;;;4.53;83.61;103383.16;10534153;28;20032;-81
2022/01/23 15:14:18;;;;;;;64.93;35.10;;;;;;;4.46;84.65;103378.03;10477776;28;20025;-80
2022/01/23 15:19:18;;;;;;;51.33;32.05;;;;;;;4.37;84.48;103373.66;10457435;28;20495;-80
2022/01/23 15:24:19;;;;;;;65.15;34.00;;;;;;;4.29;84.33;103371.88;10538081;28;20122;-80
2022/01/23 15:29:19;;;;;;;56.38;34.13;;;;;;;4.22;84.67;103374.50;10536270;28;20063;-81
2022/01/23 15:34:20;;;;;;;48.35;27.55;;;;;;;4.16;84.53;103368.63;10537514;28;20036;-79
2022/01/23 15:39:22;;;;;;;52.25;33.42;;;;;;;4.09;84.73;103374.81;10520135;28;20016;-79
2022/01/23 15:44:23;;;;;;;51.90;31.60;;;;;;;4.00;85.43;103376.34;10535071;28;20052;-79
2022/01/23 15:49:24;;;;;;;59.90;34.93;;;;;;;3.93;85.91;103377.28;10541471;28;20047;-79
2022/01/23 15:54:24;;;;;;;53.35;31.98;;;;;;;3.85;86.02;103376.44;10523116;28;20058;-79
2022/01/23 15:59:25;;;;;;;54.13;33.90;;;;;;;3.80;86.19;103382.75;10502217;28;20063;-81
2022/01/23 16:04:26;;;;;;;54.90;33.65;;;;;;;3.73;86.61;103380.19;10502681;28;20020;-80
2022/01/23 16:09:26;;;;;;;55.67;31.27;;;;;;;3.73;86.41;103373.31;10501484;28;20105;-79
2022/01/23 16:14:27;;;;;;;56.83;32.67;;;;;;;3.66;86.95;103381.13;10481201;28;20056;-78
2022/01/23 16:19:27;;;;;;;62.40;37.35;;;;;;;3.60;86.97;103380.41;10495262;28;20545;-79
2022/01/23 16:24:28;;;;;;;58.45;36.47;;;;;;;3.53;87.49;103371.03;10520994;28;20015;-78
2022/01/23 16:29:29;;;;;;;58.97;33.70;;;;;;;3.50;87.73;103375.84;10512703;28;20024;-78
2022/01/23 16:34:29;;;;;;;59.28;34.25;;;;;;;3.47;87.55;103383.25;10483428;28;20028;-78
2022/01/23 16:39:30;;;;;;;54.10;34.40;;;;;;;3.43;87.73;103381.97;10512146;28;20050;-81
2022/01/23 16:44:30;;;;;;;55.63;33.53;;;;;;;3.39;87.26;103377.16;10500206;28;20040;-75
2022/01/23 16:49:31;;;;;;;61.35;32.97;;;;;;;3.47;88.14;103379.00;10522617;28;20474;-75
2022/01/23 16:54:32;;;;;;;69.63;37.97;;;;;;;3.38;88.25;103383.09;10507382;28;20068;-75
2022/01/23 16:59:33;;;;;;;62.75;38.25;;;;;;;3.33;88.42;103381.63;10500234;28;20111;-75
2022/01/23 17:04:34;;;;;;;70.07;37.70;;;;;;;3.30;88.74;103378.69;10500333;28;20549;-76
2022/01/23 17:09:34;;;;;;;58.33;34.25;;;;;;;3.30;89.10;103383.84;10499161;28;20070;-77
2022/01/23 17:14:35;;;;;;;63.03;33.97;;;;;;;3.30;88.99;103379.63;10499301;28;20059;-78
2022/01/23 17:19:35;;;;;;;66.85;39.63;;;;;;;3.22;89.39;103383.88;10499347;28;20055;-78
2022/01/23 17:24:37;;;;;;;69.63;40.75;;;;;;;3.26;89.29;103372.22;10498619;28;20034;-79
2022/01/23 17:29:38;;;;;;;68.97;39.97;;;;;;;3.19;89.41;103375.75;10498700;28;20029;-79
2022/01/23 17:34:39;;;;;;;70.10;36.83;;;;;;;3.21;89.59;103379.44;10489403;28;20079;-79
2022/01/23 17:39:39;;;;;;;76.25;41.33;;;;;;;3.17;89.58;103376.31;10495639;28;20388;-79
2022/01/23 17:44:45;;;;;;;80.68;42.33;;;;;;;3.13;89.74;103369.84;10496714;28;20131;-79
2022/01/23 17:49:54;;;;;;;62.58;36.97;;;;;;;3.14;89.64;103370.78;10496427;28;20063;-79
2022/01/23 17:54:55;;;;;;;71.65;40.78;;;;;;;3.10;89.95;103378.94;10481268;28;20140;-79
2022/01/23 17:59:55;;;;;;;71.97;42.97;;;;;;;3.11;89.88;103380.78;10496149;28;20034;-79
2022/01/23 18:04:56;;;;;;;79.55;42.67;;;;;;;3.08;90.19;103376.16;10484745;28;20099;-78
2022/01/23 18:09:58;;;;;;;78.95;43.92;;;;;;;3.15;90.38;103368.38;10496443;28;20063;-79
2022/01/23 18:14:58;;;;;;;92.75;44.55;;;;;;;3.16;90.21;103369.31;10462422;28;20040;-78
2022/01/23 18:19:59;;;;;;;80.38;43.33;;;;;;;3.10;90.31;103374.66;10467843;28;20074;-77
2022/01/23 18:25:02;;;;;;;74.97;44.03;;;;;;;3.12;90.72;103373.19;10472480;28;20039;-79
2022/01/23 18:30:04;;;;;;;73.22;45.67;;;;;;;3.08;90.58;103382.25;10471641;28;20037;-80
2022/01/23 18:35:05;;;;;;;79.47;43.50;;;;;;;3.07;90.63;103382.06;10458034;28;20025;-77
2022/01/23 18:40:09;;;;;;;81.50;45.72;;;;;;;3.04;90.79;103376.53;10484629;28;20090;-79
2022/01/23 18:45:09;;;;;;;67.80;42.92;;;;;;;3.10;90.59;103379.84;10526331;28;20055;-77
2022/01/23 18:50:10;;;;;;;83.60;47.75;;;;;;;3.10;91.01;103372.06;10492718;28;20033;-76
2022/01/23 18:55:14;;;;;;;75.70;41.22;;;;;;;3.27;90.59;103374.09;10494384;28;20033;-79
2022/01/23 19:00:18;;;;;;;87.75;47.28;;;;;;;3.17;90.66;103372.06;10478267;28;20029;-79
2022/01/23 19:05:27;;;;;;;83.43;45.75;;;;;;;3.08;90.68;103376.16;10468527;28;20024;-76
2022/01/23 19:10:41;;;;;;;88.25;51.53;;;;;;;3.03;91.27;103373.03;10471828;28;20025;-79
2022/01/23 19:15:42;;;;;;;84.47;44.90;;;;;;;3.06;90.81;103368.22;10493291;28;20033;-76
2022/01/23 19:20:43;;;;;;;72.22;41.90;;;;;;;2.98;91.25;103371.56;10472937;28;20505;-79
2022/01/23 19:25:44;;;;;;;76.63;47.47;;;;;;;2.96;90.89;103373.03;10482851;28;20072;-83
2022/01/23 19:30:44;;;;;;;85.85;51.83;;;;;;;2.97;91.17;103377.47;10468297;28;20094;-79
2022/01/23 19:35:45;;;;;;;71.13;40.25;;;;;;;2.97;91.49;103380.06;10480002;28;20032;-79
2022/01/23 19:40:51;;;;;;;88.00;50.65;;;;;;;2.93;91.39;103373.59;10479018;28;20045;-79
2022/01/23 19:45:55;;;;;;;81.85;47.53;;;;;;;2.91;91.22;103374.16;10475859;28;20033;-79
2022/01/23 19:50:59;;;;;;;88.20;47.67;;;;;;;2.86;91.11;103368.44;10462480;28;20495;-79
2022/01/23 19:55:59;;;;;;;80.90;44.08;;;;;;;2.82;91.71;103362.72;10472691;28;20016;-78
2022/01/23 20:01:00;;;;;;;78.80;47.58;;;;;;;2.82;91.93;103355.88;10471288;28;20021;-79
2022/01/23 20:06:02;;;;;;;80.95;51.28;;;;;;;2.81;91.86;103348.84;10459888;28;20064;-78
2022/01/23 20:12:44;;;;;;;88.35;48.25;;;;;;;2.87;91.73;103341.81;10471054;28;20496;-78
2022/01/23 20:16:25;;;;;;;87.53;45.88;;;;;;;2.88;91.72;103341.06;10474127;28;20044;-79
2022/01/23 20:21:26;;;;;;;89.05;50.72;;;;;;;2.89;91.96;103342.91;10472305;28;20025;-78
2022/01/23 20:26:28;;;;;;;85.97;52.13;;;;;;;2.87;91.71;103341.81;10477453;28;20095;-78
2022/01/23 20:31:29;;;;;;;73.03;43.63;;;;;;;2.88;92.11;103328.13;10473975;28;20476;-78
2022/01/23 20:36:29;;;;;;;83.05;50.83;;;;;;;2.86;91.90;103331.31;10499541;28;20036;-79
2022/01/23 20:41:30;;;;;;;89.93;52.67;;;;;;;2.94;91.89;103328.88;10494697;28;20123;-78
2022/01/23 20:46:31;;;;;;;90.85;47.40;;;;;;;2.96;91.43;103330.72;10481335;28;20040;-78
2022/01/23 20:51:35;;;;;;;74.70;44.28;;;;;;;2.91;91.24;103328.50;10486233;28;20373;-79
2022/01/23 20:56:36;;;;;;;81.57;47.10;;;;;;;2.89;91.02;103327.41;10498822;28;20086;-78
2022/01/23 21:01:39;;;;;;;74.07;44.50;;;;;;;2.89;90.54;103322.22;10500326;28;20056;-78
2022/01/23 21:06:40;;;;;;;82.10;45.30;;;;;;;2.85;91.04;103326.88;10499165;28;20036;-78
2022/01/23 21:11:41;;;;;;;86.93;45.83;;;;;;;2.80;90.88;103334.06;10482083;28;20051;-78
2022/01/23 21:22:08;;;;;;;78.00;45.55;;;;;;;2.85;90.79;103343.28;10482642;28;20029;-78
2022/01/23 21:42:56;;;;;;;72.88;38.78;;;;;;;2.78;89.24;103339.06;10497662;28;20068;-78
2022/01/23 21:47:56;;;;;;;65.10;39.50;;;;;;;2.84;89.17;103336.28;10498491;28;20494;-78
2022/01/23 21:52:57;;;;;;;62.65;35.70;;;;;;;2.77;89.07;103337.22;10496908;28;20111;-78
2022/01/23 21:57:57;;;;;;;54.65;31.70;;;;;;;2.80;87.92;103334.06;10499312;28;20040;-78
2022/01/23 22:02:58;;;;;;;56.72;37.03;;;;;;;2.75;87.22;103318.03;10497786;28;20452;-78
2022/01/23 22:08:00;;;;;;;43.08;27.17;;;;;;;2.83;85.80;103324.09;10447317;28;20040;-78
2022/01/23 22:15:54;;;;;;;49.33;30.90;;;;;;;2.76;85.09;103325.03;10496813;28;20028;-78
2022/01/23 22:18:37;;;;;;;;;;;;;;;2.83;84.84;103325.78;10497304;28;20029;-78
2022/01/23 22:26:41;;;;;;;45.03;28.02;;;;;;;2.78;84.39;103330.38;10477799;28;19955;-78
2022/01/23 22:29:01;;;;;;;39.30;24.05;;;;;;;2.80;84.02;103326.31;10457147;28;20036;-77
2022/01/23 22:34:02;;;;;;;41.38;26.23;;;;;;;2.80;83.76;103334.06;10480815;28;20044;-78
2022/01/23 22:39:05;;;;;;;33.63;23.10;;;;;;;2.84;82.69;103327.63;10479192;28;20020;-78
2022/01/23 22:44:12;;;;;;;34.55;22.33;;;;;;;2.85;81.27;103327.78;10478811;28;20048;-78
2022/01/23 22:49:13;;;;;;;34.65;20.30;;;;;;;2.93;79.27;103328.69;10495337;28;20039;-78
2022/01/23 22:54:14;;;;;;;38.73;21.63;;;;;;;2.95;81.10;103337.56;10495743;28;20028;-78
2022/01/23 22:59:15;;;;;;;39.22;24.63;;;;;;;2.89;81.10;103336.84;10494573;28;20066;-78
2022/01/23 23:04:15;;;;;;;36.25;20.23;;;;;;;2.88;80.22;103343.66;10495417;28;20460;-78
2022/01/23 23:09:16;;;;;;;31.33;19.23;;;;;;;2.91;79.67;103327.59;10462063;28;20064;-78
2022/01/23 23:14:19;;;;;;;32.38;20.35;;;;;;;2.98;78.76;103327.56;10494285;28;20111;-78
2022/01/23 23:19:20;;;;;;;27.63;17.70;;;;;;;3.03;78.30;103315.16;10494508;28;20035;-78
2022/01/23 23:24:22;;;;;;;22.92;14.68;;;;;;;3.08;77.76;103321.81;10494197;28;20035;-78
2022/01/23 23:29:23;;;;;;;31.60;18.23;;;;;;;2.99;79.21;103323.31;10495223;28;20044;-78
2022/01/23 23:34:24;;;;;;;27.83;15.30;;;;;;;2.96;78.03;103317.78;10494318;28;20046;-78
2022/01/23 23:39:39;;;;;;;19.67;13.32;;;;;;;3.05;77.03;103313.69;10477237;28;20294;-78
2022/01/23 23:44:44;;;;;;;22.33;12.70;;;;;;;3.03;77.04;103310.94;10473549;28;20041;-78
2022/01/23 23:49:46;;;;;;;21.73;13.93;;;;;;;3.03;76.52;103304.81;10494409;28;20067;-78
2022/01/23 23:54:46;;;;;;;20.17;12.10;;;;;;;2.92;76.55;103296.72;10478016;28;20476;-78
2022/01/23 23:59:47;;;;;;;22.73;13.00;;;;;;;2.93;77.53;103303.75;10494063;28;20104;-77
